Time;durP1;ratioP1;P1;durP2;ratioP2;P2;SDS_P1;SDS_P2;PMS_P1;PMS_P2;Temp;Humidity;BMP_temperature;BMP_pressure;BME280_temperature;BME280_humidity;BME280_pressure;Samples;Min_cycle;Max_cycle;Signal;HPM_P1;HPM_P2
2022/11/24 00:01:03;;;;;;;;;;;7.20;99.90;;;;;;5031047;28;19929;-69
2022/11/24 00:03:28;;;;;;;;;;;7.10;99.90;;;;;;5032700;28;19925;-70
2022/11/24 00:05:54;;;;;;;;;;;7.10;99.90;;;;;;5051677;28;19921;-69
2022/11/24 00:08:19;;;;;;;;;;;7.00;99.90;;;;;;5034610;28;19921;-69
2022/11/24 00:10:45;;;;;;;;;;;7.00;99.90;;;;;;5033785;28;19947;-69
2022/11/24 00:13:10;;;;;;;;;;;6.90;99.90;;;;;;5032879;28;19982;-69
2022/11/24 00:15:36;;;;;;;;;;;6.80;99.90;;;;;;5050012;28;20278;-69
2022/11/24 00:18:02;;;;;;;;;;;6.70;99.90;;;;;;5034612;28;19924;-68
2022/11/24 00:20:27;;;;;;;;;;;6.60;99.90;;;;;;5035002;28;19929;-69
2022/11/24 00:22:53;;;;;;;;;;;6.60;99.90;;;;;;5016502;28;19932;-69
2022/11/24 00:25:18;;;;;;;;;;;6.50;99.90;;;;;;5017962;28;19924;-68
2022/11/24 00:27:44;;;;;;;;;;;6.40;99.90;;;;;;5051750;28;19924;-69
2022/11/24 00:30:10;;;;;;;;;;;6.40;99.90;;;;;;5034988;28;20401;-69
2022/11/24 00:32:35;;;;;;;;;;;6.40;99.90;;;;;;5034118;28;19966;-69
2022/11/24 00:35:01;;;;;;;;;;;6.30;99.90;;;;;;5032167;28;19924;-69
2022/11/24 00:37:26;;;;;;;;;;;6.30;99.90;;;;;;5033478;28;20006;-68
2022/11/24 00:39:52;;;;;;;;;;;6.30;99.90;;;;;;5048584;28;20310;-69
2022/11/24 00:42:17;;;;;;;;;;;6.30;99.90;;;;;;5034454;28;19921;-69
2022/11/24 00:44:43;;;;;;;;;;;6.20;99.90;;;;;;5031486;28;19927;-69
2022/11/24 00:47:08;;;;;;;;;;;6.20;99.90;;;;;;5033831;28;20350;-68
2022/11/24 00:49:35;;;;;;;;;;;6.10;99.90;;;;;;5028929;28;19928;-69
2022/11/24 00:52:00;;;;;;;;;;;6.10;99.90;;;;;;5032601;28;19991;-69
2022/11/24 00:54:26;;;;;;;;;;;6.10;99.90;;;;;;5031791;28;20380;-69
2022/11/24 00:56:51;;;;;;;;;;;6.00;99.90;;;;;;5049784;28;19943;-69
2022/11/24 00:59:17;;;;;;;;;;;6.00;99.90;;;;;;5050470;28;20317;-69
2022/11/24 01:01:42;;;;;;;;;;;5.90;99.90;;;;;;5033582;28;19921;-69
2022/11/24 01:04:08;;;;;;;;;;;5.90;99.90;;;;;;5033018;28;20018;-69
2022/11/24 01:06:34;;;;;;;;;;;5.90;99.90;;;;;;5028360;28;19932;-69
2022/11/24 01:09:00;;;;;;;;;;;5.80;99.90;;;;;;5034578;28;19932;-69
2022/11/24 01:11:26;;;;;;;;;;;5.80;99.90;;;;;;5033653;28;19920;-69
2022/11/24 01:13:53;;;;;;;;;;;5.80;99.90;;;;;;5032181;28;20015;-68
2022/11/24 01:16:20;;;;;;;;;;;5.80;99.90;;;;;;5047401;28;19928;-69
2022/11/24 01:18:46;;;;;;;;;;;5.80;99.90;;;;;;5030016;28;19948;-68
2022/11/24 01:21:12;;;;;;;;;;;5.80;99.90;;;;;;5030153;28;20366;-68
2022/11/24 01:23:37;;;;;;;;;;;5.90;99.90;;;;;;5050352;28;20007;-68
2022/11/24 01:26:06;;;;;;;;;;;5.80;99.90;;;;;;5032740;28;20371;-68
2022/11/24 01:28:32;;;;;;;;;;;5.80;99.90;;;;;;5031852;28;19932;-68
2022/11/24 01:30:58;;;;;;;;;;;5.80;99.90;;;;;;5029063;28;19974;-68
2022/11/24 01:33:24;;;;;;;;;;;5.80;99.90;;;;;;5033010;28;19929;-68
2022/11/24 01:35:50;;;;;;;;;;;5.80;99.90;;;;;;5032986;28;19967;-68
2022/11/24 01:38:15;;;;;;;;;;;5.70;99.90;;;;;;5031701;28;19924;-68
2022/11/24 01:40:41;;;;;;;;;;;5.70;99.90;;;;;;5027880;28;19932;-68
2022/11/24 01:43:16;;;;;;;;;;;5.80;99.90;;;;;;5035740;28;19925;-69
2022/11/24 01:45:43;;;;;;;;;;;5.80;99.90;;;;;;5033354;28;20267;-69
2022/11/24 01:48:15;;;;;;;;;;;5.80;99.90;;;;;;5033317;28;20008;-69
2022/11/24 01:50:41;;;;;;;;;;;5.80;99.90;;;;;;5028178;28;20058;-69
2022/11/24 01:53:08;;;;;;;;;;;5.90;99.90;;;;;;5048920;28;20003;-68
2022/11/24 01:55:35;;;;;;;;;;;6.00;99.90;;;;;;5025464;28;19931;-68
2022/11/24 01:58:10;;;;;;;;;;;6.00;99.90;;;;;;5032704;28;19921;-68
2022/11/24 02:00:37;;;;;;;;;;;6.00;99.90;;;;;;5028086;28;19932;-68
2022/11/24 02:03:02;;;;;;;;;;;6.00;99.90;;;;;;5024372;28;20252;-68
2022/11/24 02:05:38;;;;;;;;;;;6.10;99.90;;;;;;5021207;28;19932;-69
2022/11/24 02:08:05;;;;;;;;;;;6.10;99.90;;;;;;5040223;28;20265;-68
2022/11/24 02:10:32;;;;;;;;;;;6.10;99.90;;;;;;5030757;28;19933;-68
2022/11/24 02:12:58;;;;;;;;;;;6.20;99.90;;;;;;5030582;28;19925;-68
2022/11/24 02:15:24;;;;;;;;;;;6.20;99.90;;;;;;5030069;28;19921;-69
2022/11/24 02:17:49;;;;;;;;;;;6.20;99.90;;;;;;5028935;28;19921;-69
2022/11/24 02:20:15;;;;;;;;;;;6.20;99.90;;;;;;5031602;28;20015;-69
2022/11/24 02:22:41;;;;;;;;;;;6.20;99.90;;;;;;5031068;28;20311;-69
2022/11/24 02:25:22;;;;;;;;;;;6.20;99.90;;;;;;5029824;28;19929;-69
2022/11/24 02:27:48;;;;;;;;;;;6.20;99.90;;;;;;5043673;28;19960;-69
2022/11/24 02:30:13;;;;;;;;;;;6.10;99.90;;;;;;5048374;28;20030;-69
2022/11/24 02:32:40;;;;;;;;;;;6.10;99.90;;;;;;5032363;28;19931;-68
2022/11/24 02:35:06;;;;;;;;;;;6.00;99.90;;;;;;5047172;28;19927;-69
2022/11/24 02:37:31;;;;;;;;;;;6.00;99.90;;;;;;5031347;28;19929;-69
2022/11/24 02:39:57;;;;;;;;;;;6.00;99.90;;;;;;5025196;28;19934;-69
2022/11/24 02:42:23;;;;;;;;;;;5.90;99.90;;;;;;5032022;28;19925;-69
2022/11/24 02:44:53;;;;;;;;;;;5.90;99.90;;;;;;5032997;28;20353;-69
2022/11/24 02:47:19;;;;;;;;;;;5.80;99.90;;;;;;5049065;28;19921;-69
2022/11/24 02:49:44;;;;;;;;;;;5.70;99.90;;;;;;5011829;28;20314;-68
2022/11/24 02:52:10;;;;;;;;;;;5.70;99.90;;;;;;5028750;28;19925;-69
2022/11/24 02:54:35;;;;;;;;;;;5.70;99.90;;;;;;5050207;28;19921;-69
2022/11/24 02:57:01;;;;;;;;;;;5.70;99.90;;;;;;5015726;28;20397;-69
2022/11/24 02:59:26;;;;;;;;;;;5.60;99.90;;;;;;5051139;28;19924;-69
2022/11/24 03:01:52;;;;;;;;;;;5.60;99.90;;;;;;5031666;28;20310;-69
2022/11/24 03:04:17;;;;;;;;;;;5.60;99.90;;;;;;5028245;28;19936;-69
2022/11/24 03:06:43;;;;;;;;;;;5.60;99.90;;;;;;5031902;28;19975;-69
2022/11/24 03:09:09;;;;;;;;;;;5.60;99.90;;;;;;5031299;28;19928;-69
2022/11/24 03:11:35;;;;;;;;;;;5.60;99.90;;;;;;5032319;28;19928;-69
2022/11/24 03:14:00;;;;;;;;;;;5.60;99.90;;;;;;5032010;28;19921;-69
2022/11/24 03:16:26;;;;;;;;;;;5.60;99.90;;;;;;5028995;28;19920;-69
2022/11/24 03:18:52;;;;;;;;;;;5.60;99.90;;;;;;5029089;28;19924;-69
2022/11/24 03:21:18;;;;;;;;;;;5.60;99.90;;;;;;5034288;28;19971;-69
2022/11/24 03:23:44;;;;;;;;;;;5.60;99.90;;;;;;5035769;28;19925;-69
2022/11/24 03:26:10;;;;;;;;;;;5.60;99.90;;;;;;5033926;28;19972;-69
2022/11/24 03:28:36;;;;;;;;;;;5.70;99.90;;;;;;5032895;28;19951;-69
2022/11/24 03:31:04;;;;;;;;;;;5.70;99.90;;;;;;5016669;28;19929;-69
2022/11/24 03:33:29;;;;;;;;;;;5.70;99.90;;;;;;5016422;28;19925;-69
2022/11/24 03:35:55;;;;;;;;;;;5.80;99.90;;;;;;5035761;28;19928;-69
2022/11/24 03:38:20;;;;;;;;;;;5.80;99.90;;;;;;5051721;28;19966;-69
2022/11/24 03:40:46;;;;;;;;;;;5.90;99.90;;;;;;5033692;28;19925;-69
2022/11/24 03:43:11;;;;;;;;;;;5.90;99.90;;;;;;5049005;28;19948;-69
2022/11/24 03:45:37;;;;;;;;;;;6.00;99.90;;;;;;5017744;28;20266;-68
2022/11/24 03:48:03;;;;;;;;;;;6.10;99.90;;;;;;5011569;28;19925;-69
2022/11/24 03:50:28;;;;;;;;;;;6.10;99.90;;;;;;5032899;28;19925;-68
2022/11/24 03:52:54;;;;;;;;;;;6.10;99.90;;;;;;5031788;28;19983;-69
2022/11/24 03:55:19;;;;;;;;;;;6.00;99.90;;;;;;5033006;28;19920;-68
2022/11/24 03:57:45;;;;;;;;;;;6.00;99.90;;;;;;5029392;28;19925;-69
2022/11/24 04:00:10;;;;;;;;;;;6.00;99.90;;;;;;5051648;28;19925;-69
2022/11/24 04:02:36;;;;;;;;;;;6.00;99.90;;;;;;5029739;28;19921;-68
2022/11/24 04:05:02;;;;;;;;;;;6.00;99.90;;;;;;5033214;28;19928;-68
2022/11/24 04:07:28;;;;;;;;;;;5.90;99.90;;;;;;5031027;28;19932;-68
2022/11/24 04:09:53;;;;;;;;;;;5.90;99.90;;;;;;5032972;28;19925;-69
2022/11/24 04:15:03;;;;;;;;;;;5.80;99.90;;;;;;5029822;28;20366;-69
2022/11/24 04:17:28;;;;;;;;;;;5.70;99.90;;;;;;5049638;28;19924;-69
2022/11/24 04:19:54;;;;;;;;;;;5.70;99.90;;;;;;5033997;28;20416;-69
2022/11/24 04:22:19;;;;;;;;;;;5.60;99.90;;;;;;5031025;28;19928;-69
2022/11/24 04:24:45;;;;;;;;;;;5.60;99.90;;;;;;5051484;28;20374;-69
2022/11/24 04:27:10;;;;;;;;;;;5.50;99.90;;;;;;5030851;28;19967;-69
2022/11/24 04:29:36;;;;;;;;;;;5.50;99.90;;;;;;5029815;28;19921;-69
2022/11/24 04:32:01;;;;;;;;;;;5.50;99.90;;;;;;5032130;28;20286;-69
2022/11/24 04:34:27;;;;;;;;;;;5.40;99.90;;;;;;5049265;28;20011;-69
2022/11/24 04:36:52;;;;;;;;;;;5.40;99.90;;;;;;5050793;28;19928;-70
2022/11/24 04:39:17;;;;;;;;;;;5.40;99.90;;;;;;5045258;28;19925;-69
2022/11/24 04:41:43;;;;;;;;;;;5.40;99.90;;;;;;5046560;28;20575;-69
2022/11/24 04:44:09;;;;;;;;;;;5.30;99.90;;;;;;5049367;28;19925;-69
2022/11/24 04:46:34;;;;;;;;;;;5.30;99.90;;;;;;5014801;28;20057;-69
2022/11/24 04:49:00;;;;;;;;;;;5.30;99.90;;;;;;5050458;28;19928;-70
2022/11/24 04:51:25;;;;;;;;;;;5.30;99.90;;;;;;5032045;28;19928;-69
2022/11/24 04:53:51;;;;;;;;;;;5.30;99.90;;;;;;5026839;28;20342;-69
2022/11/24 04:56:16;;;;;;;;;;;5.30;99.90;;;;;;5032301;28;19928;-69
2022/11/24 04:58:42;;;;;;;;;;;5.20;99.90;;;;;;5033638;28;20496;-69
2022/11/24 05:01:07;;;;;;;;;;;5.20;99.90;;;;;;5033410;28;19925;-69
2022/11/24 05:03:34;;;;;;;;;;;5.20;99.90;;;;;;5034985;28;19970;-69
2022/11/24 05:05:59;;;;;;;;;;;5.20;99.90;;;;;;5035344;28;19944;-69
2022/11/24 05:08:25;;;;;;;;;;;5.10;99.90;;;;;;5034501;28;20390;-69
2022/11/24 05:10:50;;;;;;;;;;;5.10;99.90;;;;;;5028443;28;20003;-69
2022/11/24 05:13:16;;;;;;;;;;;5.10;99.90;;;;;;5023595;28;20414;-70
2022/11/24 05:15:41;;;;;;;;;;;5.10;99.90;;;;;;5024456;28;19920;-69
2022/11/24 05:18:07;;;;;;;;;;;5.10;99.90;;;;;;5031938;28;19925;-69
2022/11/24 05:20:34;;;;;;;;;;;5.10;99.90;;;;;;5017701;28;19931;-69
2022/11/24 05:23:03;;;;;;;;;;;5.10;99.90;;;;;;5032918;28;19971;-69
2022/11/24 05:25:28;;;;;;;;;;;5.10;99.90;;;;;;5030482;28;19932;-69
2022/11/24 05:27:54;;;;;;;;;;;5.10;99.90;;;;;;5010109;28;19931;-69
2022/11/24 05:30:19;;;;;;;;;;;5.10;99.90;;;;;;5024453;28;19920;-69
2022/11/24 05:32:45;;;;;;;;;;;5.10;99.90;;;;;;5039097;28;20000;-69
2022/11/24 05:35:10;;;;;;;;;;;5.00;99.90;;;;;;5031628;28;19921;-69
2022/11/24 05:37:36;;;;;;;;;;;5.10;99.90;;;;;;5033593;28;19921;-69
2022/11/24 05:40:02;;;;;;;;;;;5.00;99.90;;;;;;5017984;28;19925;-69
2022/11/24 05:42:40;;;;;;;;;;;5.00;99.90;;;;;;5045303;28;20011;-69
2022/11/24 05:45:08;;;;;;;;;;;5.00;99.90;;;;;;5042144;28;19924;-69
2022/11/24 05:47:33;;;;;;;;;;;4.90;99.90;;;;;;5033345;28;19947;-69
2022/11/24 05:49:59;;;;;;;;;;;4.90;99.90;;;;;;5026738;28;20422;-69
2022/11/24 05:52:24;;;;;;;;;;;4.90;99.90;;;;;;5023426;28;19929;-69
2022/11/24 05:54:50;;;;;;;;;;;4.90;99.90;;;;;;5026467;28;19927;-68
2022/11/24 05:57:16;;;;;;;;;;;4.90;99.90;;;;;;5029743;28;20366;-69
2022/11/24 05:59:41;;;;;;;;;;;4.90;99.90;;;;;;5031588;28;19954;-69
2022/11/24 06:02:08;;;;;;;;;;;5.00;99.90;;;;;;5030975;28;19931;-69
2022/11/24 06:04:34;;;;;;;;;;;5.00;99.90;;;;;;5026026;28;20023;-69
2022/11/24 06:07:00;;;;;;;;;;;4.90;99.90;;;;;;5022213;28;20011;-69
2022/11/24 06:09:25;;;;;;;;;;;4.90;99.90;;;;;;5025757;28;19924;-68
2022/11/24 06:11:51;;;;;;;;;;;4.80;99.90;;;;;;5047430;28;20357;-69
2022/11/24 06:14:16;;;;;;;;;;;4.80;99.90;;;;;;5058870;28;19928;-68
2022/11/24 06:16:42;;;;;;;;;;;4.70;99.90;;;;;;5031353;28;20026;-69
2022/11/24 06:19:08;;;;;;;;;;;4.70;99.90;;;;;;5032274;28;19931;-69
2022/11/24 06:21:34;;;;;;;;;;;4.70;99.90;;;;;;5032121;28;19963;-69
2022/11/24 06:23:59;;;;;;;;;;;4.60;99.90;;;;;;5031002;28;19960;-69
2022/11/24 06:26:25;;;;;;;;;;;4.60;99.90;;;;;;5032230;28;19929;-69
2022/11/24 06:28:50;;;;;;;;;;;4.60;99.90;;;;;;5031044;28;19921;-69
2022/11/24 06:31:15;;;;;;;;;;;4.60;99.90;;;;;;5032231;28;19921;-68
2022/11/24 06:33:41;;;;;;;;;;;4.60;99.90;;;;;;5031418;28;19970;-68
2022/11/24 06:36:09;;;;;;;;;;;4.50;99.90;;;;;;5032684;28;19921;-68
2022/11/24 06:38:35;;;;;;;;;;;4.50;99.90;;;;;;5032657;28;19974;-69
2022/11/24 06:41:01;;;;;;;;;;;4.50;99.90;;;;;;5031793;28;19921;-69
2022/11/24 06:43:29;;;;;;;;;;;4.50;99.90;;;;;;5030491;28;19925;-68
2022/11/24 06:45:55;;;;;;;;;;;4.50;99.90;;;;;;5032558;28;19960;-69
2022/11/24 06:48:21;;;;;;;;;;;4.50;99.90;;;;;;5032525;28;19967;-68
2022/11/24 06:50:46;;;;;;;;;;;4.50;99.90;;;;;;5012968;28;20358;-69
2022/11/24 06:53:12;;;;;;;;;;;4.50;99.90;;;;;;5031728;28;19929;-69
2022/11/24 06:55:38;;;;;;;;;;;4.50;99.90;;;;;;5016546;28;19921;-69
2022/11/24 06:58:03;;;;;;;;;;;4.50;99.90;;;;;;5037137;28;19978;-69
2022/11/24 07:00:31;;;;;;;;;;;4.50;99.90;;;;;;5046886;28;20032;-69
2022/11/24 07:02:57;;;;;;;;;;;4.60;99.90;;;;;;5037272;28;19922;-69
2022/11/24 07:05:22;;;;;;;;;;;4.60;99.90;;;;;;5037271;28;19924;-69
2022/11/24 07:07:48;;;;;;;;;;;4.60;99.90;;;;;;5036638;28;20079;-69
2022/11/24 07:10:13;;;;;;;;;;;4.60;99.90;;;;;;5036903;28;19932;-69
2022/11/24 07:12:39;;;;;;;;;;;4.60;99.90;;;;;;5055339;28;19921;-69
2022/11/24 07:15:05;;;;;;;;;;;4.60;99.90;;;;;;5036433;28;19921;-69
2022/11/24 07:17:30;;;;;;;;;;;4.60;99.90;;;;;;5033825;28;19921;-69
2022/11/24 07:19:55;;;;;;;;;;;4.60;99.90;;;;;;5036024;28;19935;-69
2022/11/24 07:22:21;;;;;;;;;;;4.60;99.90;;;;;;5053062;28;20275;-69
2022/11/24 07:24:46;;;;;;;;;;;4.70;99.90;;;;;;5030649;28;19929;-69
2022/11/24 07:27:12;;;;;;;;;;;4.70;99.90;;;;;;5036787;28;19921;-69
2022/11/24 07:29:37;;;;;;;;;;;4.70;99.90;;;;;;5053715;28;20586;-69
2022/11/24 07:32:03;;;;;;;;;;;4.70;99.90;;;;;;5036676;28;19924;-69
2022/11/24 07:34:28;;;;;;;;;;;4.80;99.90;;;;;;5025728;28;19927;-69
2022/11/24 07:36:54;;;;;;;;;;;4.80;99.90;;;;;;5054891;28;20407;-69
2022/11/24 07:39:19;;;;;;;;;;;4.70;99.90;;;;;;5036887;28;19928;-69
2022/11/24 07:41:45;;;;;;;;;;;4.80;99.90;;;;;;5026249;28;20035;-66
2022/11/24 07:44:10;;;;;;;;;;;4.80;99.90;;;;;;5033003;28;19929;-69
2022/11/24 07:46:35;;;;;;;;;;;4.80;99.90;;;;;;5051212;28;20413;-70
2022/11/24 07:49:01;;;;;;;;;;;4.80;99.90;;;;;;5033236;28;19947;-70
2022/11/24 07:51:26;;;;;;;;;;;4.70;99.90;;;;;;5034820;28;19928;-69
2022/11/24 07:53:52;;;;;;;;;;;4.80;99.90;;;;;;5032876;28;20340;-69
2022/11/24 07:56:17;;;;;;;;;;;4.80;99.90;;;;;;5032856;28;19999;-69
2022/11/24 07:58:43;;;;;;;;;;;4.80;99.90;;;;;;5024274;28;19933;-69
2022/11/24 08:01:10;;;;;;;;;;;4.80;99.90;;;;;;5033773;28;19921;-70
2022/11/24 08:03:35;;;;;;;;;;;4.80;99.90;;;;;;5031075;28;19925;-69
2022/11/24 08:06:01;;;;;;;;;;;4.80;99.90;;;;;;5034935;28;20004;-69
2022/11/24 08:08:26;;;;;;;;;;;4.90;99.90;;;;;;5052506;28;19921;-68
2022/11/24 08:10:52;;;;;;;;;;;4.90;99.90;;;;;;5035107;28;20011;-69
2022/11/24 08:13:17;;;;;;;;;;;4.90;99.90;;;;;;5024567;28;19925;-71
2022/11/24 08:15:43;;;;;;;;;;;5.00;99.90;;;;;;5035141;28;20370;-71
2022/11/24 08:18:09;;;;;;;;;;;5.00;99.90;;;;;;5050577;28;19951;-69
2022/11/24 08:20:34;;;;;;;;;;;5.00;99.90;;;;;;5029507;28;19937;-68
2022/11/24 08:23:00;;;;;;;;;;;5.00;99.90;;;;;;5031807;28;19935;-68
2022/11/24 08:25:30;;;;;;;;;;;5.10;99.90;;;;;;5048390;28;19932;-68
2022/11/24 08:27:57;;;;;;;;;;;5.20;99.90;;;;;;5019840;28;20367;-68
2022/11/24 08:30:22;;;;;;;;;;;5.30;99.90;;;;;;5046751;28;20008;-68
2022/11/24 08:32:48;;;;;;;;;;;5.30;99.90;;;;;;5026560;28;19999;-68
2022/11/24 08:35:13;;;;;;;;;;;5.40;99.90;;;;;;5050317;28;19925;-68
2022/11/24 08:37:39;;;;;;;;;;;5.50;99.90;;;;;;5031541;28;19936;-68
2022/11/24 08:40:04;;;;;;;;;;;5.50;99.90;;;;;;5028797;28;19928;-68
2022/11/24 08:42:30;;;;;;;;;;;5.50;99.90;;;;;;5024740;28;19931;-68
2022/11/24 08:44:55;;;;;;;;;;;5.50;99.90;;;;;;5029201;28;19928;-68
2022/11/24 08:47:21;;;;;;;;;;;5.60;99.90;;;;;;5046025;28;19925;-69
2022/11/24 08:49:47;;;;;;;;;;;5.70;99.90;;;;;;5031850;28;19920;-68
2022/11/24 08:52:12;;;;;;;;;;;5.70;99.90;;;;;;5030840;28;19928;-69
2022/11/24 08:54:39;;;;;;;;;;;5.80;99.90;;;;;;5047093;28;19932;-69
2022/11/24 08:57:05;;;;;;;;;;;5.90;99.90;;;;;;5028296;28;20347;-68
2022/11/24 08:59:30;;;;;;;;;;;6.00;99.90;;;;;;5046443;28;19964;-69
2022/11/24 09:01:56;;;;;;;;;;;6.00;99.90;;;;;;5030986;28;20462;-69
2022/11/24 09:04:21;;;;;;;;;;;6.10;99.90;;;;;;5027496;28;19924;-69
2022/11/24 09:06:47;;;;;;;;;;;6.20;99.90;;;;;;5029160;28;19963;-69
2022/11/24 09:09:12;;;;;;;;;;;6.20;99.90;;;;;;5029377;28;20382;-70
2022/11/24 09:11:38;;;;;;;;;;;6.30;99.90;;;;;;5046633;28;19921;-69
2022/11/24 09:14:03;;;;;;;;;;;6.40;99.90;;;;;;5032133;28;20343;-69
2022/11/24 09:16:29;;;;;;;;;;;6.40;99.90;;;;;;5048728;28;19924;-70
2022/11/24 09:18:55;;;;;;;;;;;6.50;99.90;;;;;;5050008;28;20275;-69
2022/11/24 09:21:21;;;;;;;;;;;6.50;99.90;;;;;;5048023;28;19920;-69
2022/11/24 09:23:47;;;;;;;;;;;6.60;99.90;;;;;;5050842;28;19925;-69
2022/11/24 09:26:14;;;;;;;;;;;6.60;99.90;;;;;;5032913;28;19924;-69
2022/11/24 09:28:40;;;;;;;;;;;6.70;99.90;;;;;;5032707;28;20260;-69
2022/11/24 09:31:08;;;;;;;;;;;6.80;99.90;;;;;;5022499;28;20375;-69
2022/11/24 09:33:33;;;;;;;;;;;6.90;99.90;;;;;;5029303;28;19963;-69
2022/11/24 09:35:59;;;;;;;;;;;7.00;99.90;;;;;;5024936;28;19982;-69
2022/11/24 09:38:25;;;;;;;;;;;7.00;99.90;;;;;;5043940;28;20402;-69
2022/11/24 09:40:51;;;;;;;;;;;7.10;99.90;;;;;;5024720;28;19933;-69
2022/11/24 09:43:16;;;;;;;;;;;7.20;99.90;;;;;;5032512;28;19990;-69
2022/11/24 09:45:48;;;;;;;;;;;7.20;99.90;;;;;;5029675;28;19924;-69
2022/11/24 09:48:28;;;;;;;;;;;7.20;99.90;;;;;;5027506;28;20609;-69
2022/11/24 09:50:56;;;;;;;;;;;7.30;99.90;;;;;;5030955;28;19925;-69
2022/11/24 09:53:21;;;;;;;;;;;7.30;99.90;;;;;;5046995;28;19932;-69
2022/11/24 09:55:52;;;;;;;;;;;7.40;99.90;;;;;;5048295;28;19921;-69
2022/11/24 09:58:23;;;;;;;;;;;7.40;99.90;;;;;;5045045;28;19970;-69
2022/11/24 10:00:51;;;;;;;;;;;7.50;99.90;;;;;;5043280;28;19972;-69
2022/11/24 10:03:23;;;;;;;;;;;7.50;99.90;;;;;;5046029;28;19921;-69
2022/11/24 10:05:49;;;;;;;;;;;7.50;99.90;;;;;;5049748;28;20409;-69
2022/11/24 10:08:34;;;;;;;;;;;7.60;99.90;;;;;;5027199;28;20270;-69
2022/11/24 10:11:00;;;;;;;;;;;7.60;99.90;;;;;;5048494;28;20378;-69
2022/11/24 10:13:45;;;;;;;;;;;7.70;99.90;;;;;;5028348;28;20389;-69
2022/11/24 10:16:28;;;;;;;;;;;7.80;99.90;;;;;;5048744;28;20328;-69
2022/11/24 10:19:13;;;;;;;;;;;7.80;99.90;;;;;;5036819;28;20288;-69
2022/11/24 10:21:41;;;;;;;;;;;7.80;99.90;;;;;;5046910;28;19924;-69
2022/11/24 10:24:21;;;;;;;;;;;7.90;99.90;;;;;;5028787;28;20477;-69
2022/11/24 10:26:51;;;;;;;;;;;7.90;99.90;;;;;;5041729;28;19928;-68
2022/11/24 10:29:25;;;;;;;;;;;7.90;99.90;;;;;;5027050;28;19979;-68
2022/11/24 10:31:54;;;;;;;;;;;8.00;99.90;;;;;;5043459;28;19921;-69
2022/11/24 10:34:24;;;;;;;;;;;8.00;99.90;;;;;;5029445;28;19924;-69
2022/11/24 10:39:22;;;;;;;;;;;8.10;99.90;;;;;;5080694;22;20015;-74
2022/11/24 10:41:51;;;;;;;;;;;8.20;99.90;;;;;;5064383;28;19932;-74
2022/11/24 10:44:16;;;;;;;;;;;8.20;99.90;;;;;;5069008;28;19925;-74
2022/11/24 10:46:42;;;;;;;;;;;8.30;99.90;;;;;;5069899;28;19925;-74
2022/11/24 10:49:14;;;;;;;;;;;8.30;99.90;;;;;;5066461;28;19921;-74
2022/11/24 10:52:00;;;;;;;;;;;8.30;99.90;;;;;;5062702;28;19920;-74
2022/11/24 10:54:25;;;;;;;;;;;8.20;99.90;;;;;;5058550;28;20003;-74
2022/11/24 10:56:52;;;;;;;;;;;8.20;99.90;;;;;;5063004;28;20015;-73
2022/11/24 10:59:28;;;;;;;;;;;8.20;99.90;;;;;;5063837;28;19963;-74
2022/11/24 11:01:54;;;;;;;;;;;8.20;99.90;;;;;;5067066;28;20369;-74
2022/11/24 11:04:21;;;;;;;;;;;8.30;99.90;;;;;;5064233;28;19931;-74
2022/11/24 11:06:46;;;;;;;;;;;8.30;99.90;;;;;;5067518;28;19921;-74
2022/11/24 11:09:19;;;;;;;;;;;8.40;99.90;;;;;;5065384;28;19931;-73
2022/11/24 11:11:48;;;;;;;;;;;8.40;99.90;;;;;;5086192;28;19927;-74
2022/11/24 11:14:30;;;;;;;;;;;8.40;99.90;;;;;;5074561;28;19963;-74
2022/11/24 11:16:56;;;;;;;;;;;8.40;99.90;;;;;;5059269;28;20216;-74
2022/11/24 11:19:25;;;;;;;;;;;8.40;99.90;;;;;;5058264;28;19928;-73
2022/11/24 11:21:59;;;;;;;;;;;8.40;99.90;;;;;;5064369;28;20324;-74
2022/11/24 11:24:26;;;;;;;;;;;8.40;99.90;;;;;;5066174;28;20257;-74
2022/11/24 11:26:58;;;;;;;;;;;8.40;99.90;;;;;;5063950;28;20018;-74
2022/11/24 11:29:25;;;;;;;;;;;8.50;99.90;;;;;;5083876;28;19920;-74
2022/11/24 11:31:58;;;;;;;;;;;8.50;99.90;;;;;;5076924;28;19963;-74
2022/11/24 11:34:24;;;;;;;;;;;8.50;99.90;;;;;;5067590;28;19920;-74
2022/11/24 11:36:50;;;;;;;;;;;8.60;99.90;;;;;;5067934;28;19928;-74
2022/11/24 11:39:19;;;;;;;;;;;8.60;99.90;;;;;;5062416;28;19924;-74
2022/11/24 11:41:46;;;;;;;;;;;8.70;99.90;;;;;;5066972;28;19925;-73
2022/11/24 11:44:27;;;;;;;;;;;8.70;99.90;;;;;;5066800;28;20286;-74
2022/11/24 11:46:54;;;;;;;;;;;8.80;99.90;;;;;;5078283;28;19931;-74
2022/11/24 11:49:19;;;;;;;;;;;8.90;99.90;;;;;;5066497;28;20545;-74
2022/11/24 11:52:04;;;;;;;;;;;9.00;99.90;;;;;;5071023;28;19931;-74
2022/11/24 11:54:41;;;;;;;;;;;9.00;99.90;;;;;;5068774;28;19959;-74
2022/11/24 11:57:12;;;;;;;;;;;9.00;99.90;;;;;;5065951;28;19960;-74
2022/11/24 11:59:48;;;;;;;;;;;9.00;99.90;;;;;;5065209;28;20413;-74
2022/11/24 12:02:17;;;;;;;;;;;9.10;99.90;;;;;;5070828;28;19931;-74
2022/11/24 12:04:55;;;;;;;;;;;9.10;99.90;;;;;;5069626;28;19935;-73
2022/11/24 12:07:33;;;;;;;;;;;9.20;99.90;;;;;;5071425;28;20007;-73
2022/11/24 12:10:18;;;;;;;;;;;9.20;99.90;;;;;;5072866;28;22258;-74
2022/11/24 12:12:47;;;;;;;;;;;9.20;99.90;;;;;;5072168;28;19951;-74
2022/11/24 12:15:24;;;;;;;;;;;9.30;99.90;;;;;;5071600;28;19925;-74
2022/11/24 12:18:08;;;;;;;;;;;9.30;99.90;;;;;;5073245;28;20027;-74
2022/11/24 12:20:34;;;;;;;;;;;9.40;99.90;;;;;;5067325;28;19943;-74
2022/11/24 12:23:10;;;;;;;;;;;9.40;99.90;;;;;;5071030;28;20386;-74
2022/11/24 12:25:50;;;;;;;;;;;9.40;99.90;;;;;;5069481;28;19935;-74
2022/11/24 12:28:21;;;;;;;;;;;9.50;99.90;;;;;;5085961;28;19927;-74
2022/11/24 12:30:58;;;;;;;;;;;9.50;99.90;;;;;;5076416;28;19920;-74
2022/11/24 12:33:46;;;;;;;;;;;9.50;99.90;;;;;;5064062;28;19920;-74
2022/11/24 12:36:28;;;;;;;;;;;9.50;99.90;;;;;;5048161;28;20340;-74
2022/11/24 12:39:00;;;;;;;;;;;9.60;99.90;;;;;;5054069;28;19925;-74
2022/11/24 12:41:27;;;;;;;;;;;9.60;99.90;;;;;;5073050;28;19927;-74
2022/11/24 12:43:56;;;;;;;;;;;9.60;99.90;;;;;;5077050;28;19935;-74
2022/11/24 12:46:28;;;;;;;;;;;9.60;99.90;;;;;;5072761;28;19920;-74
2022/11/24 12:49:06;;;;;;;;;;;9.70;99.90;;;;;;5071169;28;20010;-74
2022/11/24 12:51:36;;;;;;;;;;;9.60;99.90;;;;;;5073830;28;19924;-74
2022/11/24 12:54:04;;;;;;;;;;;9.60;99.90;;;;;;5064253;28;19999;-74
2022/11/24 12:56:36;;;;;;;;;;;9.50;99.90;;;;;;5073606;28;19920;-73
2022/11/24 12:59:11;;;;;;;;;;;9.50;99.90;;;;;;5081799;28;20417;-74
2022/11/24 13:01:36;;;;;;;;;;;9.60;99.90;;;;;;5066494;28;20686;-74
2022/11/24 13:04:02;;;;;;;;;;;9.50;99.90;;;;;;5069400;28;19931;-74
2022/11/24 13:06:34;;;;;;;;;;;9.60;99.90;;;;;;5069096;28;19928;-74
2022/11/24 13:09:06;;;;;;;;;;;9.60;99.90;;;;;;5062501;28;20266;-74
2022/11/24 13:11:37;;;;;;;;;;;9.60;99.90;;;;;;5046820;28;20440;-74
2022/11/24 13:14:11;;;;;;;;;;;9.70;99.90;;;;;;5059974;28;19931;-73
2022/11/24 13:16:47;;;;;;;;;;;9.70;99.90;;;;;;5061221;28;20012;-74
2022/11/24 13:19:19;;;;;;;;;;;9.70;99.90;;;;;;5066705;28;20055;-74
2022/11/24 13:21:49;;;;;;;;;;;9.60;99.90;;;;;;5047788;28;20020;-74
2022/11/24 13:24:17;;;;;;;;;;;9.60;99.90;;;;;;5067128;28;19924;-74
2022/11/24 13:26:47;;;;;;;;;;;9.60;99.90;;;;;;5070421;28;20289;-74
2022/11/24 13:29:31;;;;;;;;;;;9.60;99.90;;;;;;5068691;28;19932;-74
2022/11/24 13:31:59;;;;;;;;;;;9.60;99.90;;;;;;5068215;28;20506;-75
2022/11/24 13:34:37;;;;;;;;;;;9.60;99.90;;;;;;5070228;28;19960;-75
2022/11/24 13:37:15;;;;;;;;;;;9.60;99.90;;;;;;5066764;28;20015;-75
2022/11/24 13:39:53;;;;;;;;;;;9.50;99.90;;;;;;5067503;28;19930;-76
2022/11/24 13:42:19;;;;;;;;;;;9.60;99.90;;;;;;5068720;28;20549;-76
2022/11/24 13:44:45;;;;;;;;;;;9.50;99.90;;;;;;5071836;28;20482;-76
2022/11/24 13:47:31;;;;;;;;;;;9.50;99.90;;;;;;5064012;28;20439;-75
2022/11/24 13:49:57;;;;;;;;;;;9.50;99.90;;;;;;5068849;28;19998;-75
2022/11/24 13:52:35;;;;;;;;;;;9.50;99.90;;;;;;5067983;28;20333;-75
2022/11/24 13:55:01;;;;;;;;;;;9.50;99.90;;;;;;5060711;28;19921;-75
2022/11/24 13:57:45;;;;;;;;;;;9.50;99.90;;;;;;5067567;28;19924;-75
2022/11/24 14:00:34;;;;;;;;;;;9.40;99.90;;;;;;5067784;28;19947;-75
2022/11/24 14:03:04;;;;;;;;;;;9.50;99.90;;;;;;5065258;28;19927;-75
2022/11/24 14:05:37;;;;;;;;;;;9.40;99.90;;;;;;5052712;28;19921;-75
2022/11/24 14:08:04;;;;;;;;;;;9.40;99.90;;;;;;5069719;28;19925;-75
2022/11/24 14:10:31;;;;;;;;;;;9.40;99.90;;;;;;5070796;28;20011;-75
2022/11/24 14:13:14;;;;;;;;;;;9.40;99.90;;;;;;5070388;28;19928;-75
2022/11/24 14:15:40;;;;;;;;;;;9.30;99.90;;;;;;5067674;28;19970;-75
2022/11/24 14:18:35;;;;;;;;;;;9.30;99.90;;;;;;5068849;28;20336;-75
2022/11/24 14:21:15;;;;;;;;;;;9.30;99.90;;;;;;5061494;28;19925;-76
2022/11/24 14:23:42;;;;;;;;;;;9.20;99.90;;;;;;5053340;28;19927;-75
2022/11/24 14:26:14;;;;;;;;;;;9.10;99.90;;;;;;5070852;28;19924;-75
2022/11/24 14:28:39;;;;;;;;;;;9.10;99.90;;;;;;5068441;28;19935;-75
2022/11/24 14:31:06;;;;;;;;;;;9.00;99.90;;;;;;5071005;28;19927;-75
2022/11/24 14:33:32;;;;;;;;;;;8.90;99.90;;;;;;5061104;28;19928;-74
2022/11/24 14:35:57;;;;;;;;;;;8.90;99.90;;;;;;5063197;28;19929;-74
2022/11/24 14:38:23;;;;;;;;;;;8.80;99.90;;;;;;5067410;28;19928;-74
2022/11/24 14:40:50;;;;;;;;;;;8.80;99.90;;;;;;5066867;28;19960;-73